sensor_id;sensor_type;location;lat;lon;timestamp;P1;durP1;ratioP1;P2;durP2;ratioP2
43871;SDS011;29521;48.780;9.126;2023-07-24T00:00:16;12.13;;;11.63;;
43871;SDS011;29521;48.780;9.126;2023-07-24T00:06:17;12.48;;;11.98;;
43871;SDS011;29521;48.780;9.126;2023-07-24T00:12:21;12.27;;;11.77;;
43871;SDS011;29521;48.780;9.126;2023-07-24T00:18:23;13.13;;;12.52;;
43871;SDS011;29521;48.780;9.126;2023-07-24T00:24:25;14.50;;;13.90;;
43871;SDS011;29521;48.780;9.126;2023-07-24T00:30:31;14.57;;;13.98;;
43871;SDS011;29521;48.780;9.126;2023-07-24T00:36:33;14.98;;;14.38;;
43871;SDS011;29521;48.780;9.126;2023-07-24T00:42:34;14.90;;;14.30;;
43871;SDS011;29521;48.780;9.126;2023-07-24T01:45:52;19.98;;;19.15;;
43871;SDS011;29521;48.780;9.126;2023-07-24T01:51:54;19.73;;;18.93;;
43871;SDS011;29521;48.780;9.126;2023-07-24T01:57:57;19.27;;;18.47;;
43871;SDS011;29521;48.780;9.126;2023-07-24T02:04:02;19.15;;;18.35;;
43871;SDS011;29521;48.780;9.126;2023-07-24T02:28:11;15.98;;;15.27;;
43871;SDS011;29521;48.780;9.126;2023-07-24T02:34:12;16.57;;;15.87;;
43871;SDS011;29521;48.780;9.126;2023-07-24T02:40:16;17.50;;;16.80;;
43871;SDS011;29521;48.780;9.126;2023-07-24T02:46:18;19.83;;;19.03;;
43871;SDS011;29521;48.780;9.126;2023-07-24T02:52:20;20.00;;;19.17;;
43871;SDS011;29521;48.780;9.126;2023-07-24T02:58:25;19.63;;;18.83;;
43871;SDS011;29521;48.780;9.126;2023-07-24T03:04:27;19.63;;;18.83;;
43871;SDS011;29521;48.780;9.126;2023-07-24T03:10:29;19.98;;;19.17;;
43871;SDS011;29521;48.780;9.126;2023-07-24T03:16:32;19.40;;;18.60;;
43871;SDS011;29521;48.780;9.126;2023-07-24T03:22:34;18.93;;;18.13;;
43871;SDS011;29521;48.780;9.126;2023-07-24T03:28:38;16.53;;;15.83;;
43871;SDS011;29521;48.780;9.126;2023-07-24T03:34:41;16.40;;;15.70;;
43871;SDS011;29521;48.780;9.126;2023-07-24T03:40:43;16.52;;;15.82;;
43871;SDS011;29521;48.780;9.126;2023-07-24T03:46:45;16.77;;;16.07;;
43871;SDS011;29521;48.780;9.126;2023-07-24T03:52:48;16.80;;;16.10;;
43871;SDS011;29521;48.780;9.126;2023-07-24T03:58:50;18.35;;;17.55;;
43871;SDS011;29521;48.780;9.126;2023-07-24T04:04:53;19.98;;;19.17;;
43871;SDS011;29521;48.780;9.126;2023-07-24T04:10:57;20.47;;;19.57;;
43871;SDS011;29521;48.780;9.126;2023-07-24T04:16:58;19.60;;;18.80;;
43871;SDS011;29521;48.780;9.126;2023-07-24T04:23:01;20.77;;;19.88;;
43871;SDS011;29521;48.780;9.126;2023-07-24T04:29:04;19.87;;;19.07;;
43871;SDS011;29521;48.780;9.126;2023-07-24T04:35:06;20.43;;;19.53;;
43871;SDS011;29521;48.780;9.126;2023-07-24T04:41:08;20.43;;;19.53;;
43871;SDS011;29521;48.780;9.126;2023-07-24T04:47:12;20.67;;;19.77;;
43871;SDS011;29521;48.780;9.126;2023-07-24T04:53:13;21.17;;;20.27;;
43871;SDS011;29521;48.780;9.126;2023-07-24T04:59:15;21.80;;;20.90;;
43871;SDS011;29521;48.780;9.126;2023-07-24T05:05:19;22.10;;;21.20;;
43871;SDS011;29521;48.780;9.126;2023-07-24T05:11:21;21.97;;;21.07;;
43871;SDS011;29521;48.780;9.126;2023-07-24T05:17:23;24.42;;;23.42;;
43871;SDS011;29521;48.780;9.126;2023-07-24T05:23:26;23.10;;;22.10;;
43871;SDS011;29521;48.780;9.126;2023-07-24T05:29:28;22.83;;;21.83;;
43871;SDS011;29521;48.780;9.126;2023-07-24T05:35:30;22.98;;;21.98;;
43871;SDS011;29521;48.780;9.126;2023-07-24T05:41:33;18.20;;;17.40;;
43871;SDS011;29521;48.780;9.126;2023-07-24T05:47:35;26.23;;;25.13;;
43871;SDS011;29521;48.780;9.126;2023-07-24T05:53:37;31.23;;;29.83;;
43871;SDS011;29521;48.780;9.126;2023-07-24T05:59:42;48.23;;;45.73;;
43871;SDS011;29521;48.780;9.126;2023-07-24T06:05:44;15.70;;;15.00;;
43871;SDS011;29521;48.780;9.126;2023-07-24T07:30:23;24.30;;;23.30;;
43871;SDS011;29521;48.780;9.126;2023-07-24T07:36:25;24.63;;;23.52;;
43871;SDS011;29521;48.780;9.126;2023-07-24T07:42:27;25.10;;;24.00;;
43871;SDS011;29521;48.780;9.126;2023-07-24T07:48:31;27.38;;;26.17;;
43871;SDS011;29521;48.780;9.126;2023-07-24T07:54:33;31.13;;;29.73;;
43871;SDS011;29521;48.780;9.126;2023-07-24T08:00:35;31.60;;;30.20;;
43871;SDS011;29521;48.780;9.126;2023-07-24T08:06:43;31.65;;;30.25;;
43871;SDS011;29521;48.780;9.126;2023-07-24T08:12:45;31.65;;;30.25;;
43871;SDS011;29521;48.780;9.126;2023-07-24T08:18:47;32.20;;;30.80;;
43871;SDS011;29521;48.780;9.126;2023-07-24T08:24:51;30.02;;;28.73;;
43871;SDS011;29521;48.780;9.126;2023-07-24T08:31:08;27.10;;;25.90;;
43871;SDS011;29521;48.780;9.126;2023-07-24T08:37:28;28.10;;;26.90;;
43871;SDS011;29521;48.780;9.126;2023-07-24T08:43:32;32.70;;;31.20;;
43871;SDS011;29521;48.780;9.126;2023-07-24T08:49:35;33.30;;;31.80;;
43871;SDS011;29521;48.780;9.126;2023-07-24T09:38:03;21.47;;;20.53;;
43871;SDS011;29521;48.780;9.126;2023-07-24T09:44:06;14.93;;;14.32;;
43871;SDS011;29521;48.780;9.126;2023-07-24T09:50:08;23.10;;;22.10;;
43871;SDS011;29521;48.780;9.126;2023-07-24T09:56:12;28.50;;;27.30;;
43871;SDS011;29521;48.780;9.126;2023-07-24T10:02:15;28.20;;;27.00;;
43871;SDS011;29521;48.780;9.126;2023-07-24T10:08:18;29.40;;;28.10;;
43871;SDS011;29521;48.780;9.126;2023-07-24T10:14:25;29.02;;;27.73;;
43871;SDS011;29521;48.780;9.126;2023-07-24T10:20:32;29.10;;;27.80;;
43871;SDS011;29521;48.780;9.126;2023-07-24T10:26:36;27.63;;;26.42;;
43871;SDS011;29521;48.780;9.126;2023-07-24T10:32:50;27.20;;;26.00;;
43871;SDS011;29521;48.780;9.126;2023-07-24T10:38:52;32.57;;;31.13;;
43871;SDS011;29521;48.780;9.126;2023-07-24T10:45:01;28.15;;;26.95;;
43871;SDS011;29521;48.780;9.126;2023-07-24T10:51:10;31.50;;;30.10;;
43871;SDS011;29521;48.780;9.126;2023-07-24T10:57:14;33.60;;;32.10;;
43871;SDS011;29521;48.780;9.126;2023-07-24T11:09:38;15.13;;;14.52;;
43871;SDS011;29521;48.780;9.126;2023-07-24T11:15:56;16.40;;;15.70;;
43871;SDS011;29521;48.780;9.126;2023-07-24T12:47:49;37.95;;;36.15;;
43871;SDS011;29521;48.780;9.126;2023-07-24T12:53:50;23.40;;;22.40;;
43871;SDS011;29521;48.780;9.126;2023-07-24T12:59:54;24.48;;;23.48;;
43871;SDS011;29521;48.780;9.126;2023-07-24T13:05:56;25.20;;;24.10;;
43871;SDS011;29521;48.780;9.126;2023-07-24T13:12:00;12.80;;;12.30;;
43871;SDS011;29521;48.780;9.126;2023-07-24T13:18:04;23.00;;;22.00;;
43871;SDS011;29521;48.780;9.126;2023-07-24T13:24:06;16.20;;;15.50;;
43871;SDS011;29521;48.780;9.126;2023-07-24T13:30:08;15.80;;;15.10;;
43871;SDS011;29521;48.780;9.126;2023-07-24T13:36:12;14.80;;;14.20;;
43871;SDS011;29521;48.780;9.126;2023-07-24T13:42:14;14.60;;;14.00;;
43871;SDS011;29521;48.780;9.126;2023-07-24T13:48:17;14.30;;;13.70;;
43871;SDS011;29521;48.780;9.126;2023-07-24T13:54:20;14.90;;;14.30;;
43871;SDS011;29521;48.780;9.126;2023-07-24T14:00:26;14.40;;;13.80;;
43871;SDS011;29521;48.780;9.126;2023-07-24T14:06:53;14.40;;;13.80;;
43871;SDS011;29521;48.780;9.126;2023-07-24T14:13:07;14.70;;;14.10;;
43871;SDS011;29521;48.780;9.126;2023-07-24T14:19:17;14.40;;;13.80;;
43871;SDS011;29521;48.780;9.126;2023-07-24T14:25:26;15.60;;;14.90;;
43871;SDS011;29521;48.780;9.126;2023-07-24T14:31:29;15.73;;;15.02;;
43871;SDS011;29521;48.780;9.126;2023-07-24T14:37:31;15.52;;;14.82;;
43871;SDS011;29521;48.780;9.126;2023-07-24T14:43:33;15.85;;;15.15;;
43871;SDS011;29521;48.780;9.126;2023-07-24T14:49:36;16.00;;;15.30;;
43871;SDS011;29521;48.780;9.126;2023-07-24T14:55:38;16.17;;;15.48;;
43871;SDS011;29521;48.780;9.126;2023-07-24T15:01:41;16.25;;;15.55;;
43871;SDS011;29521;48.780;9.126;2023-07-24T15:07:47;16.27;;;15.57;;
43871;SDS011;29521;48.780;9.126;2023-07-24T15:13:49;16.23;;;15.52;;
43871;SDS011;29521;48.780;9.126;2023-07-24T15:19:51;15.85;;;15.15;;
43871;SDS011;29521;48.780;9.126;2023-07-24T15:25:55;14.88;;;14.27;;
43871;SDS011;29521;48.780;9.126;2023-07-24T15:31:57;14.60;;;14.00;;
43871;SDS011;29521;48.780;9.126;2023-07-24T15:37:59;16.50;;;15.80;;
43871;SDS011;29521;48.780;9.126;2023-07-24T15:50:07;17.92;;;17.13;;
43871;SDS011;29521;48.780;9.126;2023-07-24T15:56:09;18.10;;;17.30;;
43871;SDS011;29521;48.780;9.126;2023-07-24T16:02:13;18.17;;;17.37;;
43871;SDS011;29521;48.780;9.126;2023-07-24T16:08:15;17.60;;;16.90;;
43871;SDS011;29521;48.780;9.126;2023-07-24T16:14:17;17.47;;;16.77;;
43871;SDS011;29521;48.780;9.126;2023-07-24T16:20:20;16.65;;;15.95;;
43871;SDS011;29521;48.780;9.126;2023-07-24T16:26:22;16.30;;;15.60;;
43871;SDS011;29521;48.780;9.126;2023-07-24T16:32:27;17.80;;;17.00;;
43871;SDS011;29521;48.780;9.126;2023-07-24T16:38:32;17.07;;;16.37;;
43871;SDS011;29521;48.780;9.126;2023-07-24T16:44:34;17.10;;;16.40;;
43871;SDS011;29521;48.780;9.126;2023-07-24T16:50:36;16.60;;;15.90;;
43871;SDS011;29521;48.780;9.126;2023-07-24T16:56:40;18.17;;;17.38;;
43871;SDS011;29521;48.780;9.126;2023-07-24T17:02:42;17.77;;;17.02;;
43871;SDS011;29521;48.780;9.126;2023-07-24T17:08:44;18.10;;;17.30;;
43871;SDS011;29521;48.780;9.126;2023-07-24T17:14:48;17.52;;;16.83;;
43871;SDS011;29521;48.780;9.126;2023-07-24T17:20:51;17.20;;;16.50;;
43871;SDS011;29521;48.780;9.126;2023-07-24T17:26:52;16.08;;;15.38;;
43871;SDS011;29521;48.780;9.126;2023-07-24T17:32:56;13.98;;;13.38;;
43871;SDS011;29521;48.780;9.126;2023-07-24T17:38:58;14.80;;;14.20;;
43871;SDS011;29521;48.780;9.126;2023-07-24T17:45:02;15.90;;;15.20;;
43871;SDS011;29521;48.780;9.126;2023-07-24T17:51:05;19.83;;;19.02;;
43871;SDS011;29521;48.780;9.126;2023-07-24T17:57:07;20.80;;;19.90;;
43871;SDS011;29521;48.780;9.126;2023-07-24T18:03:09;20.90;;;20.00;;
43871;SDS011;29521;48.780;9.126;2023-07-24T18:09:12;19.48;;;18.67;;
43871;SDS011;29521;48.780;9.126;2023-07-24T18:15:14;18.00;;;17.20;;
43871;SDS011;29521;48.780;9.126;2023-07-24T18:21:16;18.30;;;17.50;;
43871;SDS011;29521;48.780;9.126;2023-07-24T18:27:21;17.75;;;17.00;;
43871;SDS011;29521;48.780;9.126;2023-07-24T18:33:23;16.30;;;15.60;;
43871;SDS011;29521;48.780;9.126;2023-07-24T18:39:25;15.10;;;14.50;;
43871;SDS011;29521;48.780;9.126;2023-07-24T18:45:28;17.03;;;16.33;;
43871;SDS011;29521;48.780;9.126;2023-07-24T18:51:32;18.10;;;17.30;;
43871;SDS011;29521;48.780;9.126;2023-07-24T18:57:34;17.95;;;17.15;;
43871;SDS011;29521;48.780;9.126;2023-07-24T19:03:37;17.80;;;17.05;;
43871;SDS011;29521;48.780;9.126;2023-07-24T19:09:39;17.55;;;16.85;;
43871;SDS011;29521;48.780;9.126;2023-07-24T19:15:41;17.50;;;16.80;;
43871;SDS011;29521;48.780;9.126;2023-07-24T19:21:44;16.80;;;16.10;;
43871;SDS011;29521;48.780;9.126;2023-07-24T19:27:46;16.65;;;15.95;;
43871;SDS011;29521;48.780;9.126;2023-07-24T19:33:48;16.90;;;16.20;;
43871;SDS011;29521;48.780;9.126;2023-07-24T19:39:53;18.60;;;17.80;;
43871;SDS011;29521;48.780;9.126;2023-07-24T19:45:55;18.92;;;18.13;;
43871;SDS011;29521;48.780;9.126;2023-07-24T19:51:57;22.10;;;21.20;;
43871;SDS011;29521;48.780;9.126;2023-07-24T19:58:01;22.40;;;21.40;;
43871;SDS011;29521;48.780;9.126;2023-07-24T20:04:03;22.57;;;21.57;;
43871;SDS011;29521;48.780;9.126;2023-07-24T20:10:06;24.55;;;23.50;;
43871;SDS011;29521;48.780;9.126;2023-07-24T20:16:11;21.60;;;20.70;;
43871;SDS011;29521;48.780;9.126;2023-07-24T20:22:19;21.40;;;20.50;;
43871;SDS011;29521;48.780;9.126;2023-07-24T20:28:21;18.42;;;17.63;;
43871;SDS011;29521;48.780;9.126;2023-07-24T20:34:24;17.00;;;16.30;;
43871;SDS011;29521;48.780;9.126;2023-07-24T20:40:26;18.38;;;17.58;;
43871;SDS011;29521;48.780;9.126;2023-07-24T20:46:28;18.67;;;17.88;;
43871;SDS011;29521;48.780;9.126;2023-07-24T20:52:32;17.60;;;16.90;;
43871;SDS011;29521;48.780;9.126;2023-07-24T20:58:34;17.95;;;17.15;;
43871;SDS011;29521;48.780;9.126;2023-07-24T21:04:36;18.30;;;17.50;;
43871;SDS011;29521;48.780;9.126;2023-07-24T21:10:40;21.40;;;20.50;;
43871;SDS011;29521;48.780;9.126;2023-07-24T21:16:42;21.80;;;20.90;;
43871;SDS011;29521;48.780;9.126;2023-07-24T21:22:44;21.63;;;20.73;;
43871;SDS011;29521;48.780;9.126;2023-07-24T21:28:48;26.92;;;25.73;;
43871;SDS011;29521;48.780;9.126;2023-07-24T21:34:53;27.25;;;26.05;;
43871;SDS011;29521;48.780;9.126;2023-07-24T21:40:58;26.88;;;25.67;;
43871;SDS011;29521;48.780;9.126;2023-07-24T21:47:02;27.07;;;25.87;;
43871;SDS011;29521;48.780;9.126;2023-07-24T21:53:04;22.63;;;21.63;;
43871;SDS011;29521;48.780;9.126;2023-07-24T21:59:07;28.10;;;26.90;;
43871;SDS011;29521;48.780;9.126;2023-07-24T22:05:13;24.35;;;23.33;;
43871;SDS011;29521;48.780;9.126;2023-07-24T22:11:15;31.40;;;30.00;;
